createdAt,value
2017-12-20T00:04:11.781Z,99.1
2017-12-20T00:09:11.984Z,98.4
2017-12-20T00:14:11.789Z,98.1
2017-12-20T00:19:11.983Z,97.8
2017-12-20T00:24:11.798Z,98.2
2017-12-20T00:29:11.931Z,98.3
2017-12-20T00:44:12.076Z,98.6
2017-12-20T00:49:12.186Z,98.5
2017-12-20T00:54:12.236Z,98.4
2017-12-20T00:59:12.253Z,98.3
2017-12-20T01:04:12.201Z,98.7
2017-12-20T01:09:12.174Z,98.5
2017-12-20T01:14:12.116Z,98.9
2017-12-20T01:19:12.126Z,98.6
2017-12-20T01:24:12.086Z,98.8
2017-12-20T01:29:12.230Z,98.8
2017-12-20T01:34:12.329Z,99.5
2017-12-20T01:39:12.119Z,99.4
2017-12-20T01:49:12.227Z,100
2017-12-20T01:54:12.104Z,100
2017-12-20T01:59:12.092Z,99.7
2017-12-20T02:04:12.204Z,99.7
2017-12-20T02:34:12.416Z,98.4
2017-12-20T02:44:12.448Z,98.6
2017-12-20T02:49:12.537Z,98.4
2017-12-20T02:54:12.715Z,98.3
2017-12-20T02:59:12.668Z,98.3
2017-12-20T03:04:12.585Z,98.3
2017-12-20T03:09:12.437Z,98.4
2017-12-20T03:14:12.642Z,98.4
2017-12-20T03:19:12.560Z,98
2017-12-20T03:24:12.834Z,98.1
2017-12-20T03:29:12.724Z,98.2
2017-12-20T03:34:12.647Z,98.1
2017-12-20T03:39:12.572Z,97.8
2017-12-20T03:44:12.612Z,97.9
2017-12-20T03:49:12.566Z,97.8
2017-12-20T03:54:12.585Z,97.8
2017-12-20T03:59:12.612Z,98.1
2017-12-20T04:04:12.642Z,97.9
2017-12-20T04:09:12.550Z,97.9
2017-12-20T04:14:12.582Z,98.1
2017-12-20T04:19:12.646Z,98.5
2017-12-20T04:49:12.676Z,97.7
2017-12-20T04:59:12.821Z,97.4
2017-12-20T05:04:12.720Z,97.6
2017-12-20T05:09:12.779Z,97.8
2017-12-20T05:14:12.664Z,97.5
2017-12-20T05:19:12.667Z,97.5
2017-12-20T05:24:12.670Z,97.5
2017-12-20T05:29:12.699Z,97.3
2017-12-20T05:34:12.761Z,97.7
2017-12-20T05:39:12.767Z,97.8
2017-12-20T05:44:12.905Z,97.3
2017-12-20T05:49:12.895Z,97.6
2017-12-20T05:54:12.792Z,97.4
2017-12-20T05:59:12.652Z,97.6
2017-12-20T06:04:12.698Z,97.5
2017-12-20T06:09:12.945Z,97.4
2017-12-20T06:14:12.687Z,97.4
2017-12-20T06:19:12.761Z,97.5
2017-12-20T06:24:12.784Z,97.3
2017-12-20T06:29:12.740Z,97.4
2017-12-20T06:34:12.696Z,97.5
2017-12-20T06:39:12.879Z,97.7
2017-12-20T06:44:12.671Z,97.6
2017-12-20T06:49:12.685Z,97.5
2017-12-20T06:54:12.843Z,97.3
2017-12-20T06:59:12.772Z,97.7
2017-12-20T07:04:12.905Z,97.4
2017-12-20T07:09:12.682Z,97.6
2017-12-20T07:14:12.865Z,97.7
2017-12-20T07:19:12.872Z,97.2
2017-12-20T07:24:12.762Z,97.2
2017-12-20T07:29:12.880Z,97.5
2017-12-20T07:34:12.785Z,97.2
2017-12-20T07:39:12.825Z,96.7
2017-12-20T07:44:12.983Z,97.1
2017-12-20T07:49:12.893Z,97
2017-12-20T07:54:12.727Z,96.6
2017-12-20T07:59:12.839Z,96.6
2017-12-20T08:04:12.894Z,96.6
2017-12-20T08:09:12.887Z,96.1
2017-12-20T08:14:13.043Z,96
2017-12-20T08:19:12.871Z,95.5
2017-12-20T08:24:12.892Z,95
2017-12-20T08:29:12.921Z,95.1
2017-12-20T08:34:12.831Z,94.6
2017-12-20T08:39:12.880Z,94.8
2017-12-20T08:44:12.919Z,94.4
2017-12-20T08:49:12.823Z,94.6
2017-12-20T08:54:12.849Z,94
2017-12-20T08:59:22.840Z,93.7
2017-12-20T09:04:12.932Z,93.5
2017-12-20T09:09:12.837Z,93.8
2017-12-20T09:14:12.919Z,93.7
2017-12-20T09:19:13.039Z,94.2
2017-12-20T09:24:12.814Z,94.2
2017-12-20T09:29:12.818Z,94.6
2017-12-20T09:34:12.829Z,94.2
2017-12-20T09:39:12.944Z,93.9
2017-12-20T09:44:12.845Z,93.6
2017-12-20T09:49:12.882Z,92.9
2017-12-20T09:54:12.859Z,91.8
2017-12-20T09:59:12.950Z,91.3
2017-12-20T10:04:12.863Z,91.4
2017-12-20T10:09:12.933Z,91.3
2017-12-20T10:14:12.955Z,91.7
2017-12-20T10:19:12.995Z,91.3
2017-12-20T10:24:12.899Z,90.5
2017-12-20T10:29:12.924Z,89.7
2017-12-20T10:34:12.790Z,89.5
2017-12-20T10:39:13.017Z,89
2017-12-20T10:44:13.080Z,88.5
2017-12-20T10:49:12.953Z,88.4
2017-12-20T10:54:12.979Z,88.3
2017-12-20T10:59:12.807Z,87.6
2017-12-20T11:04:12.961Z,87.1
2017-12-20T11:09:12.806Z,87.1
2017-12-20T11:14:12.787Z,87.9
2017-12-20T11:19:12.915Z,87.3
2017-12-20T11:24:13.031Z,87.8
2017-12-20T11:29:12.889Z,87.4
2017-12-20T11:34:13.419Z,88.2
2017-12-20T11:39:13.067Z,88.4
2017-12-20T11:44:12.975Z,88.9
2017-12-20T11:49:13.092Z,87.9
2017-12-20T11:54:13.200Z,87.7
2017-12-20T11:59:12.987Z,87.3
2017-12-20T12:04:13.031Z,87.8
2017-12-20T12:09:13.030Z,87.8
2017-12-20T12:14:12.969Z,88.1
2017-12-20T12:19:13.090Z,88.5
2017-12-20T12:24:13.029Z,87.8
2017-12-20T12:29:12.962Z,88.5
2017-12-20T12:34:13.106Z,88.9
2017-12-20T12:39:12.997Z,88.5
2017-12-20T12:44:12.923Z,88.6
2017-12-20T12:49:12.960Z,88.4
2017-12-20T12:54:13.802Z,89.6
2017-12-20T12:59:12.949Z,89.5
2017-12-20T13:04:13.099Z,89.5
2017-12-20T13:09:12.894Z,90
2017-12-20T13:14:13.065Z,90
2017-12-20T13:19:13.227Z,90.3
2017-12-20T13:24:12.911Z,90.6
2017-12-20T13:29:13.087Z,91.1
2017-12-20T13:34:12.919Z,90.9
2017-12-20T13:39:12.876Z,90.3
2017-12-20T13:44:13.085Z,90.3
2017-12-20T13:49:13.124Z,90.5
2017-12-20T13:54:12.913Z,91.2
2017-12-20T13:59:13.100Z,90.9
2017-12-20T14:04:13.095Z,91
2017-12-20T14:09:13.132Z,90.9
2017-12-20T14:14:12.897Z,91.1
2017-12-20T14:19:12.987Z,91.5
2017-12-20T14:24:12.902Z,92.1
2017-12-20T14:29:12.932Z,92.3
2017-12-20T14:34:13.074Z,93.3
2017-12-20T14:39:12.990Z,93.1
2017-12-20T14:44:12.969Z,92.9
2017-12-20T14:49:13.011Z,92.7
2017-12-20T14:54:13.109Z,93.3
2017-12-20T14:59:12.935Z,93.2
2017-12-20T15:04:12.932Z,92.7
2017-12-20T15:09:13.027Z,93.1
2017-12-20T15:14:13.105Z,93.5
2017-12-20T15:19:23.134Z,93.9
2017-12-20T15:24:12.991Z,94
2017-12-20T15:29:12.929Z,94.4
2017-12-20T15:34:13.252Z,94.4
2017-12-20T15:39:14.044Z,95
2017-12-20T15:44:13.126Z,95.2
2017-12-20T15:49:13.002Z,95.5
2017-12-20T15:54:13.104Z,95.8
2017-12-20T15:59:12.989Z,94.4
2017-12-20T16:04:13.039Z,95.1
2017-12-20T16:09:13.177Z,95.1
2017-12-20T16:14:13.068Z,95.6
2017-12-20T16:19:12.906Z,95.7
2017-12-20T16:24:12.935Z,95.6
2017-12-20T16:29:12.834Z,95.9
2017-12-20T16:34:12.839Z,95.8
2017-12-20T16:39:13.011Z,95.5
2017-12-20T16:44:12.860Z,95.4
2017-12-20T16:49:12.999Z,95.3
2017-12-20T16:54:13.113Z,95.7
2017-12-20T16:59:12.892Z,96.3
2017-12-20T17:04:13.626Z,96
2017-12-20T17:09:13.029Z,96.2
2017-12-20T17:14:12.970Z,96.2
2017-12-20T17:19:12.984Z,96.4
2017-12-20T17:24:12.959Z,95.4
2017-12-20T17:29:14.489Z,96.3
2017-12-20T17:34:12.885Z,95.4
2017-12-20T17:39:13.011Z,95.4
2017-12-20T17:44:12.941Z,95.5
2017-12-20T17:49:12.901Z,95.4
2017-12-20T17:54:13.071Z,94.9
2017-12-20T17:59:14.373Z,95.2
2017-12-20T18:04:13.228Z,95.5
2017-12-20T18:09:13.172Z,94.8
2017-12-20T18:14:13.096Z,94.9
2017-12-20T18:19:13.224Z,95.3
2017-12-20T18:24:13.336Z,95.1
2017-12-20T18:29:23.234Z,95.2
2017-12-20T18:34:13.307Z,95.1
2017-12-20T18:39:13.131Z,95.7
2017-12-20T18:44:14.106Z,96.2
2017-12-20T18:49:13.238Z,96.2
2017-12-20T18:54:13.326Z,95.6
2017-12-20T18:59:13.148Z,95.2
2017-12-20T19:04:13.183Z,95.5
2017-12-20T19:09:13.238Z,96.3
2017-12-20T19:14:13.235Z,96.2
2017-12-20T19:19:13.327Z,95.8
2017-12-20T19:24:13.345Z,96
2017-12-20T19:29:16.128Z,96.8
2017-12-20T19:34:13.156Z,96.4
2017-12-20T19:39:13.369Z,96.8
2017-12-20T19:44:13.201Z,97
2017-12-20T19:49:13.220Z,96.8
2017-12-20T19:54:13.373Z,96.9
2017-12-20T19:59:13.366Z,96.8
2017-12-20T20:04:13.349Z,97.2
2017-12-20T20:09:13.153Z,96.9
2017-12-20T20:14:13.326Z,96.7
2017-12-20T20:19:13.251Z,97.1
2017-12-20T20:24:13.358Z,97.4
2017-12-20T20:29:13.404Z,97.2
2017-12-20T20:34:13.208Z,97
2017-12-20T20:39:13.264Z,96.8
2017-12-20T20:44:13.375Z,96.8
2017-12-20T20:49:13.444Z,97.3
2017-12-20T20:54:13.436Z,97.2
2017-12-20T20:59:13.318Z,97.3
2017-12-20T21:04:14.744Z,97.1
2017-12-20T21:09:13.238Z,97.3
2017-12-20T21:14:13.409Z,96.9
2017-12-20T21:19:13.477Z,97.4
2017-12-20T21:24:13.308Z,97.1
2017-12-20T21:29:13.420Z,97.1
2017-12-20T21:34:13.309Z,97.7
2017-12-20T21:39:13.358Z,97.9
2017-12-20T21:44:13.382Z,98.3
2017-12-20T21:49:13.420Z,98.3
2017-12-20T21:54:13.245Z,98.1
2017-12-20T21:59:13.372Z,98
2017-12-20T22:04:13.220Z,98.4
2017-12-20T22:09:13.423Z,98.6
2017-12-20T22:14:13.253Z,98.2
2017-12-20T22:19:23.388Z,97.5
2017-12-20T22:24:13.388Z,97.9
2017-12-20T22:29:13.196Z,98.3
2017-12-20T22:34:13.564Z,97.7
2017-12-20T22:39:13.349Z,98.1
2017-12-20T22:44:13.445Z,98.5
2017-12-20T22:49:13.358Z,98.6
2017-12-20T22:54:13.250Z,98.2
2017-12-20T22:59:13.398Z,98.2
2017-12-20T23:04:13.306Z,98.4
2017-12-20T23:09:13.260Z,98.5
2017-12-20T23:14:13.294Z,98.4
2017-12-20T23:19:13.416Z,98.2
2017-12-20T23:24:13.260Z,98.6
2017-12-20T23:29:13.239Z,98.3
2017-12-20T23:34:13.494Z,98.2
2017-12-20T23:39:13.452Z,98
2017-12-20T23:44:14.186Z,98.3
2017-12-20T23:49:13.476Z,98.4
2017-12-20T23:54:13.331Z,98.4
2017-12-20T23:59:13.227Z,98.3
